Stations météo

réclame
Mon MeteoGroup
Sint Katelijne-Waver, Belgique (6439): Température de l'air & dewpoint: 12.08.2019 05:00:00 - 18.08.2019 05:00:00 (CEST)Sint Katelijne-Waver, Belgique (6439): Vitesse du vent & gusts: 12.08.2019 05:00:00 - 18.08.2019 05:00:00 (CEST)Sint Katelijne-Waver, Belgique (6439): Direction du vent: 12.08.2019 05:00:00 - 18.08.2019 05:00:00 (CEST)Sint Katelijne-Waver, Belgique (6439): reduced air pressure: 12.08.2019 05:00:00 - 18.08.2019 05:00:00 (CEST)Sint Katelijne-Waver, Belgique (6439): Ensoleillement: 12.08.2019 05:00:00 - 18.08.2019 05:00:00 (CEST)Sint Katelijne-Waver, Belgique (6439): Quantités de précipitations: 12.08.2019 05:00:00 - 18.08.2019 05:00:00 (CEST)
Date & Time tt [°C] td [°C] ff [km/h] ff [knt] fx [km/h] fx [knt] dd ppp [hPa] sd [min] rr [mm]
18.08.2019 05:00:00 - - - - - - - - - -
18.08.2019 04:00:00 16,3 14,7 7 4 13 7 SSW 1007,4 0 0,0
18.08.2019 03:00:00 - - - - - - - - 0 -
18.08.2019 02:00:00 16,7 14,8 11 6 17 9 SSW 1007,9 0 0,0
18.08.2019 01:00:00 16,9 15,5 8 5 14 8 SSW 1008,1 0 0,0
18.08.2019 00:00:00 17,1 15,7 9 5 14 8 SSW 1008,0 0 0,0
17.08.2019 23:00:00 16,9 15,5 8 4 15 8 SW 1007,9 0 0,0
17.08.2019 22:00:00 17,4 16,1 8 4 14 7 SW 1008,5 0 0,0
17.08.2019 21:00:00 17,7 16,7 8 4 18 10 S 1007,6 0 0,2
17.08.2019 20:00:00 18,1 17,2 11 6 18 10 SSW 1007,9 0 1,8
17.08.2019 19:00:00 19,1 18,0 10 6 31 17 SW 1007,8 0 2,9
17.08.2019 18:00:00 20,8 17,5 19 11 36 19 SSW 1007,8 0 0,0
17.08.2019 17:00:00 20,5 17,6 14 8 32 17 SSW 1007,6 0 0,0
17.08.2019 16:00:00 19,9 17,2 18 10 32 17 SSW 1007,8 0 0,0
17.08.2019 15:00:00 20,1 17,2 14 7 32 18 S 1007,7 0 0,0
17.08.2019 14:00:00 19,9 17,0 14 8 31 17 SSW 1007,9 0 0,0
17.08.2019 13:00:00 19,3 17,0 17 9 30 16 SSW 1008,2 0 0,0
17.08.2019 12:00:00 18,5 17,2 14 8 27 15 S 1008,4 0 0,5
17.08.2019 11:00:00 17,7 16,2 16 9 34 19 SSW 1008,2 0 0,0
17.08.2019 10:00:00 17,7 15,8 14 7 32 17 SSW 1008,1 0 0,0
17.08.2019 09:00:00 17,7 15,3 17 9 28 15 SSW 1008,1 0 0,0
17.08.2019 08:00:00 17,3 15,0 18 10 32 17 SSW 1007,8 0 0,0
17.08.2019 07:00:00 17,1 14,7 14 8 37 20 SSW 1007,9 0 0,0
17.08.2019 06:00:00 18,9 13,3 19 11 37 20 SSW 1007,8 0 0,0
17.08.2019 05:00:00 18,7 13,5 19 11 32 17 SW 1007,8 0 0,0
17.08.2019 04:00:00 18,9 13,5 13 7 24 13 SSW 1008,0 0 0,0
17.08.2019 03:00:00 17,9 14,4 7 4 12 7 S 1008,7 0 0,0
17.08.2019 02:00:00 17,9 14,6 7 4 11 6 SSE 1009,1 0 0,0
17.08.2019 01:00:00 17,7 14,5 6 4 13 7 SSE 1010,1 0 0,1
17.08.2019 00:00:00 17,8 14,3 7 4 12 7 SSE 1010,7 0 0,2
16.08.2019 23:00:00 18,7 13,7 8 4 18 10 SE 1010,9 0 0,1
16.08.2019 22:00:00 20,0 12,8 8 4 13 7 SSE 1011,7 0 0,0
16.08.2019 21:00:00 20,7 12,6 6 3 21 12 SSE 1011,9 0 0,0
16.08.2019 20:00:00 21,8 12,0 11 6 25 14 S 1012,1 0 0,0
16.08.2019 19:00:00 22,1 12,1 12 6 26 14 SSW 1012,7 0 0,0
16.08.2019 18:00:00 22,4 12,0 13 7 28 15 SSW 1013,2 24 0,0
16.08.2019 17:00:00 22,9 12,4 13 7 26 14 S 1013,8 53 0,0
16.08.2019 16:00:00 22,0 12,5 17 9 29 16 SW 1014,8 28 0,0
16.08.2019 15:00:00 21,6 13,0 15 8 27 15 SW 1015,6 19 0,0
16.08.2019 14:00:00 - - - - - - - - 10 -
16.08.2019 13:00:00 20,2 13,2 11 6 29 15 SSW 1016,4 51 0,0
16.08.2019 12:00:00 18,8 13,7 13 7 23 12 SW 1017,3 60 0,0
16.08.2019 11:00:00 17,8 13,8 13 7 21 11 S 1017,6 59 0,0
16.08.2019 10:00:00 16,2 13,4 13 7 22 12 SW 1017,7 34 0,0
16.08.2019 09:00:00 15,3 13,5 14 8 21 12 SSW 1017,6 3 0,0
16.08.2019 08:00:00 14,4 13,5 11 6 16 9 SSW 1017,5 0 0,0
16.08.2019 07:00:00 13,9 12,7 7 4 12 7 SSW 1017,8 0 0,0
16.08.2019 06:00:00 14,3 13,0 6 4 13 7 S 1017,7 0 0,0
16.08.2019 05:00:00 14,4 12,9 7 4 15 8 SSW 1017,6 0 0,0
16.08.2019 04:00:00 14,3 12,7 8 4 11 6 SW 1017,8 0 0,0
16.08.2019 03:00:00 14,6 12,7 7 4 12 7 SSW 1017,5 0 0,0
16.08.2019 02:00:00 15,1 12,8 7 4 13 7 SW 1017,4 0 0,0
16.08.2019 01:00:00 15,7 13,1 8 4 12 7 SW 1017,4 0 0,0
16.08.2019 00:00:00 17,0 13,3 10 5 21 11 WSW 1017,1 0 0,0
15.08.2019 23:00:00 17,9 13,5 12 6 20 11 SW 1016,7 0 0,0
15.08.2019 22:00:00 17,8 12,8 6 3 10 6 SW 1016,3 0 0,0
15.08.2019 21:00:00 19,2 12,4 8 5 22 12 W 1015,3 0 0,0
15.08.2019 20:00:00 19,6 12,0 14 8 27 14 W 1014,8 18 0,0
15.08.2019 19:00:00 20,0 12,1 18 10 38 21 WNW 1014,1 31 0,0
15.08.2019 18:00:00 21,2 12,1 21 12 34 19 W 1013,5 54 0,0
15.08.2019 17:00:00 18,4 13,4 15 8 34 18 W 1013,2 26 0,8
15.08.2019 16:00:00 20,6 13,4 18 10 32 17 WSW 1012,3 16 0,0
15.08.2019 15:00:00 - - - - - - - - - -
15.08.2019 14:00:00 - - - - - - - - 21 -
15.08.2019 13:00:00 - - - - - - - - - -
15.08.2019 12:00:00 - - - - - - - - - -
15.08.2019 11:00:00 - - - - - - - - - -
15.08.2019 10:00:00 - - - - - - - - - -
15.08.2019 09:00:00 - - - - - - - - - -
15.08.2019 08:00:00 - - - - - - - - - -
15.08.2019 07:00:00 - - - - - - - - - -
15.08.2019 06:00:00 - - - - - - - - - -
15.08.2019 05:00:00 - - - - - - - - - -
15.08.2019 04:00:00 - - - - - - - - - -
15.08.2019 03:00:00 - - - - - - - - - -
15.08.2019 02:00:00 - - - - - - - - - -
15.08.2019 01:00:00 - - - - - - - - - -
15.08.2019 00:00:00 - - - - - - - - - -
14.08.2019 23:00:00 - - - - - - - - - -
14.08.2019 22:00:00 - - - - - - - - - -
14.08.2019 21:00:00 - - - - - - - - - -
14.08.2019 20:00:00 - - - - - - - - - -
14.08.2019 19:00:00 - - - - - - - - - -
14.08.2019 18:00:00 - - - - - - - - - -
14.08.2019 17:00:00 - - - - - - - - - -
14.08.2019 16:00:00 - - - - - - - - - -
14.08.2019 15:00:00 - - - - - - - - - -
14.08.2019 14:00:00 - - - - - - - - - -
14.08.2019 13:00:00 19,2 11,9 13 7 24 13 S 1017,9 56 0,0
14.08.2019 12:00:00 18,1 11,3 16 9 24 13 SSW 1018,5 58 0,0
14.08.2019 11:00:00 17,7 13,0 11 6 25 13 SSW 1018,7 60 0,0
14.08.2019 10:00:00 16,1 12,8 11 6 19 11 S 1018,8 60 0,0
14.08.2019 09:00:00 13,7 12,4 6 3 11 6 S 1019,0 60 0,0
14.08.2019 08:00:00 11,4 10,6 4 2 8 4 SSE 1019,1 56 0,0
14.08.2019 07:00:00 9,9 9,3 4 2 7 4 SSE 1019,0 0 0,0
14.08.2019 06:00:00 9,7 9,2 4 2 9 5 SSE 1018,9 0 0,0
14.08.2019 05:00:00 10,1 9,5 6 3 8 4 SSE 1019,0 0 0,0
14.08.2019 04:00:00 9,6 8,9 4 2 5 3 ESE 1019,1 0 0,0
14.08.2019 03:00:00 10,4 9,5 0 0 7 4 N 1019,1 0 0,0
14.08.2019 02:00:00 12,2 10,8 7 4 12 6 SSW 1019,1 0 0,0
14.08.2019 01:00:00 11,8 11,2 7 4 11 6 SW 1019,2 0 0,0
14.08.2019 00:00:00 - - - - - - - - 0 -
13.08.2019 23:00:00 12,0 11,0 0 0 4 2 N 1019,2 0 0,0
13.08.2019 22:00:00 13,3 11,9 4 2 7 4 SSE 1019,0 0 0,0
13.08.2019 21:00:00 14,5 12,5 4 2 6 3 S 1018,6 49 0,0
13.08.2019 20:00:00 15,4 12,0 4 2 32 18 SSE 1018,2 49 3,6
13.08.2019 19:00:00 16,7 12,6 6 4 18 10 SW 1018,2 17 0,1
13.08.2019 18:00:00 16,8 13,0 10 5 19 11 SSW 1018,2 13 0,2
13.08.2019 17:00:00 16,0 11,7 13 7 22 12 SSW 1018,5 18 0,4
13.08.2019 16:00:00 15,4 13,0 9 5 24 13 SSW 1018,7 0 0,9
13.08.2019 15:00:00 14,4 12,3 10 6 39 21 SSW 1019,1 0 3,2
13.08.2019 14:00:00 18,0 9,5 - - 34 19 - - 22 0,0
13.08.2019 13:00:00 19,1 9,3 18 10 32 17 WSW 1018,4 48 0,0
13.08.2019 12:00:00 17,7 11,0 14 8 26 14 SW 1018,6 60 0,0
13.08.2019 11:00:00 16,5 12,0 15 8 25 14 SSW 1018,9 60 0,0
13.08.2019 10:00:00 15,0 12,0 13 7 22 12 SW 1018,7 60 0,0
13.08.2019 09:00:00 13,5 11,5 12 6 21 11 SW 1018,6 60 0,0
13.08.2019 08:00:00 12,1 10,9 7 4 12 7 SW 1018,0 45 0,0
13.08.2019 07:00:00 10,8 9,9 4 2 6 3 S 1017,8 0 0,0
13.08.2019 06:00:00 11,7 10,6 4 2 11 6 SSW 1017,5 0 0,0
13.08.2019 05:00:00 12,5 11,3 8 4 14 8 SW 1017,3 0 0,0
13.08.2019 04:00:00 13,1 11,9 6 4 13 7 W 1017,2 0 0,0
13.08.2019 03:00:00 - - - - - - - - 0 -
13.08.2019 02:00:00 13,0 12,0 7 4 17 9 WSW 1016,8 0 0,0
13.08.2019 01:00:00 13,4 12,2 11 6 17 9 SW 1016,7 0 0,0
13.08.2019 00:00:00 13,1 12,1 8 4 16 9 SSW 1016,4 0 0,0
12.08.2019 23:00:00 13,3 12,1 7 4 16 9 S 1015,9 0 2,9
12.08.2019 22:00:00 - - - - - - - - 0 -
12.08.2019 21:00:00 16,4 12,4 4 2 11 6 W 1015,2 0 0,0
12.08.2019 20:00:00 17,2 13,9 7 4 10 6 SE 1014,6 31 0,0
12.08.2019 19:00:00 17,1 13,6 7 4 14 7 S 1014,4 45 0,0
12.08.2019 18:00:00 16,6 13,4 7 4 14 7 SSW 1014,6 8 0,0
12.08.2019 17:00:00 15,2 13,1 0 0 23 13 N 1014,9 0 1,4
12.08.2019 16:00:00 15,2 12,6 13 7 54 29 W 1015,9 0 0,7
12.08.2019 15:00:00 21,5 11,1 16 9 33 18 SW 1014,4 31 0,0
12.08.2019 14:00:00 22,2 11,0 14 8 25 14 SW 1014,2 43 0,0
12.08.2019 13:00:00 20,8 10,9 14 7 29 16 WSW 1015,0 41 0,0
12.08.2019 12:00:00 20,5 11,9 13 7 28 15 SW 1015,5 60 0,0
12.08.2019 11:00:00 19,4 12,5 14 8 23 13 SW 1015,8 60 0,0
12.08.2019 10:00:00 17,8 12,6 14 8 22 12 SSW 1015,8 60 0,0
12.08.2019 09:00:00 16,5 12,2 14 8 22 12 SW 1015,6 60 0,0
12.08.2019 08:00:00 15,6 12,2 7 4 16 9 SSW 1015,5 56 0,0
12.08.2019 07:00:00 14,5 11,9 6 3 16 9 S 1015,5 0 0,0
12.08.2019 06:00:00 14,7 12,0 8 4 15 8 SSW 1015,2 0 0,0
12.08.2019 05:00:00 15,1 12,0 9 5 19 10 SSW 1015,1 0 0,0

tt = Température de l'air
td = dewpoint
ff = Vitesse du vent
fx = gusts
dd = Direction du vent
ppp = reduced air pressure
sd = Ensoleillement
rr = Quantités de précipitations

stations d'obs. à proximité